createdAt,value
2019-04-14T00:02:01.443Z,164.27
2019-04-14T00:06:11.912Z,165.37
2019-04-14T00:10:22.653Z,166.77
2019-04-14T00:14:33.640Z,165.57
2019-04-14T00:18:44.734Z,162.10
2019-04-14T00:22:55.520Z,165.00
2019-04-14T00:27:06.403Z,166.03
2019-04-14T00:31:17.340Z,166.77
2019-04-14T00:35:32.713Z,171.07
2019-04-14T00:39:44.646Z,166.60
2019-04-14T00:43:59.490Z,163.53
2019-04-14T00:48:16.615Z,164.40
2019-04-14T00:52:25.471Z,163.60
2019-04-14T00:56:36.867Z,165.20
2019-04-14T01:00:47.953Z,166.73
2019-04-14T01:05:00.036Z,165.03
2019-04-14T01:09:13.049Z,168.63
2019-04-14T01:13:24.537Z,165.73
2019-04-14T01:17:35.273Z,164.20
2019-04-14T01:21:45.775Z,165.97
2019-04-14T01:25:56.526Z,168.80
2019-04-14T01:30:11.170Z,162.80
2019-04-14T01:34:21.726Z,164.77
2019-04-14T01:38:32.058Z,162.83
2019-04-14T01:42:42.279Z,169.07
2019-04-14T01:46:52.584Z,166.53
2019-04-14T01:51:13.604Z,164.53
2019-04-14T01:55:44.132Z,167.03
2019-04-14T01:59:54.717Z,167.17
2019-04-14T02:04:05.056Z,169.33
2019-04-14T02:08:16.112Z,168.50
2019-04-14T02:12:27.783Z,165.90
2019-04-14T02:16:44.484Z,165.43
2019-04-14T02:20:51.183Z,166.63
2019-04-14T02:25:01.812Z,167.17
2019-04-14T02:29:12.758Z,168.77
2019-04-14T02:34:00.781Z,169.17
2019-04-14T02:38:12.312Z,168.67
2019-04-14T02:42:27.685Z,168.90
2019-04-14T02:46:34.505Z,166.77
2019-04-14T02:50:38.521Z,169.63
2019-04-14T02:59:00.085Z,184.07
2019-04-14T03:03:16.467Z,164.17
2019-04-14T03:11:43.980Z,170.43
2019-04-14T03:15:56.873Z,172.97
2019-04-14T03:24:30.834Z,171.47
2019-04-14T03:28:51.391Z,175.77
2019-04-14T03:37:24.086Z,169.30
2019-04-14T03:45:44.142Z,167.27
2019-04-14T03:53:57.576Z,167.60
2019-04-14T03:57:45.504Z,168.27
2019-04-14T04:01:56.614Z,175.10
2019-04-14T04:06:07.544Z,168.47
2019-04-14T04:10:19.152Z,168.23
2019-04-14T04:14:29.710Z,164.90
2019-04-14T04:18:50.932Z,168.40
2019-04-14T04:23:03.087Z,166.70
2019-04-14T04:27:27.261Z,168.57
2019-04-14T04:31:46.116Z,203.22
2019-04-14T04:36:01.125Z,173.30
2019-04-14T04:40:13.592Z,174.63
2019-04-14T04:44:24.807Z,170.10
2019-04-14T04:48:35.252Z,173.43
2019-04-14T04:52:45.713Z,172.83
2019-04-14T04:56:56.060Z,170.10
2019-04-14T05:01:07.663Z,172.03
2019-04-14T05:05:53.946Z,170.47
2019-04-14T05:10:13.188Z,174.77
2019-04-14T05:14:28.348Z,172.60
2019-04-14T05:18:39.646Z,171.37
2019-04-14T05:22:50.828Z,171.53
2019-04-14T05:27:01.434Z,178.17
2019-04-14T05:31:12.164Z,177.63
2019-04-14T05:35:22.755Z,175.97
2019-04-14T05:39:33.078Z,174.23
2019-04-14T05:43:50.211Z,174.10
2019-04-14T05:47:56.492Z,173.63
2019-04-14T05:52:07.754Z,176.43
2019-04-14T05:56:18.662Z,172.57
2019-04-14T06:00:29.972Z,177.57
2019-04-14T06:04:40.409Z,174.00
2019-04-14T06:08:50.902Z,178.43
2019-04-14T06:13:01.093Z,176.77
2019-04-14T06:17:12.073Z,173.47
2019-04-14T06:21:22.676Z,172.70
2019-04-14T06:25:32.979Z,172.77
2019-04-14T06:29:43.353Z,171.37
2019-04-14T06:33:57.052Z,171.17
2019-04-14T06:38:09.007Z,168.77
2019-04-14T06:42:19.628Z,166.50
2019-04-14T06:46:29.925Z,169.93
2019-04-14T06:50:41.857Z,168.57
2019-04-14T06:54:52.315Z,166.40
2019-04-14T06:59:02.936Z,166.97
2019-04-14T07:03:13.381Z,167.10
2019-04-14T07:07:24.799Z,167.00
2019-04-14T07:11:35.423Z,166.93
2019-04-14T07:15:45.717Z,162.93
2019-04-14T07:20:02.276Z,162.70
2019-04-14T07:24:08.012Z,162.10
2019-04-14T07:28:18.484Z,164.70
2019-04-14T07:32:45.745Z,163.75
2019-04-14T07:36:57.699Z,165.73
2019-04-14T07:41:15.808Z,163.80
2019-04-14T07:45:30.361Z,167.73
2019-04-14T07:49:57.289Z,162.27
2019-04-14T07:54:11.859Z,164.57
2019-04-14T07:58:24.019Z,167.83
2019-04-14T08:02:35.955Z,169.53
2019-04-14T08:06:48.009Z,164.83
2019-04-14T08:10:58.851Z,167.47
2019-04-14T08:15:09.667Z,166.00
2019-04-14T08:19:19.995Z,169.23
2019-04-14T08:23:30.599Z,167.87
2019-04-14T08:27:40.935Z,168.43
2019-04-14T08:31:51.323Z,166.07
2019-04-14T08:36:01.667Z,167.53
2019-04-14T08:40:12.113Z,166.27
2019-04-14T08:44:35.762Z,168.27
2019-04-14T08:48:47.639Z,166.70
2019-04-14T08:53:02.429Z,168.47
2019-04-14T08:57:20.527Z,170.33
2019-04-14T09:01:35.609Z,166.10
2019-04-14T09:05:47.619Z,164.80
2019-04-14T09:10:02.307Z,172.20
2019-04-14T09:14:13.026Z,170.13
2019-04-14T09:18:23.236Z,169.20
2019-04-14T09:22:33.547Z,169.53
2019-04-14T09:26:45.095Z,170.87
2019-04-14T09:30:56.004Z,172.07
2019-04-14T09:35:07.046Z,170.27
2019-04-14T09:39:17.303Z,167.57
2019-04-14T09:43:27.776Z,165.43
2019-04-14T09:47:38.091Z,165.30
2019-04-14T09:51:48.962Z,169.63
2019-04-14T09:55:59.427Z,164.57
2019-04-14T10:00:11.278Z,163.27
2019-04-14T10:04:21.663Z,164.17
2019-04-14T10:08:31.951Z,163.55
2019-04-14T10:12:42.564Z,167.43
2019-04-14T10:16:52.871Z,164.23
2019-04-14T10:21:03.403Z,166.50
2019-04-14T10:25:13.827Z,163.57
2019-04-14T10:29:24.270Z,166.93
2019-04-14T10:33:34.594Z,170.07
2019-04-14T10:37:46.292Z,167.47
2019-04-14T10:41:56.842Z,166.23
2019-04-14T10:46:07.234Z,161.73
2019-04-14T10:50:29.901Z,166.00
2019-04-14T10:54:29.449Z,162.10
2019-04-14T10:58:39.782Z,169.73
2019-04-14T11:02:50.384Z,174.53
2019-04-14T11:07:11.302Z,170.80
2019-04-14T11:11:22.398Z,170.33
2019-04-14T11:15:32.679Z,165.57
2019-04-14T11:19:43.003Z,161.50
2019-04-14T11:23:53.449Z,162.43
2019-04-14T11:28:03.989Z,168.00
2019-04-14T11:32:18.631Z,158.30
2019-04-14T11:36:46.736Z,166.50
2019-04-14T11:41:00.749Z,166.07
2019-04-14T11:45:11.834Z,165.40
2019-04-14T11:49:22.295Z,162.57
2019-04-14T11:53:32.574Z,163.33
2019-04-14T11:57:45.410Z,168.60
2019-04-14T12:01:57.290Z,166.90
2019-04-14T12:06:18.718Z,165.33
2019-04-14T12:10:28.979Z,180.37
2019-04-14T12:14:39.205Z,166.10
2019-04-14T12:18:49.857Z,168.27
2019-04-14T12:23:00.212Z,174.80
2019-04-14T12:27:10.569Z,173.30
2019-04-14T12:31:21.836Z,175.77
2019-04-14T12:35:32.297Z,177.83
2019-04-14T12:39:43.503Z,187.33
2019-04-14T12:43:55.502Z,176.70
2019-04-14T12:48:07.757Z,179.60
2019-04-14T12:52:22.562Z,178.68
2019-04-14T12:56:32.900Z,180.23
2019-04-14T13:00:51.363Z,184.70
2019-04-14T13:05:01.928Z,183.83
2019-04-14T13:09:14.600Z,189.80
2019-04-14T13:13:24.925Z,181.70
2019-04-14T13:17:35.266Z,184.43
2019-04-14T13:21:47.064Z,185.13
2019-04-14T13:25:57.397Z,183.30
2019-04-14T13:30:10.611Z,186.23
2019-04-14T13:34:20.965Z,181.87
2019-04-14T13:38:31.253Z,183.13
2019-04-14T13:42:41.450Z,183.40
2019-04-14T13:46:52.268Z,188.23
2019-04-14T13:51:03.148Z,184.47
2019-04-14T13:55:14.570Z,182.65
2019-04-14T13:59:24.856Z,188.57
2019-04-14T14:03:35.288Z,183.87
2019-04-14T14:07:45.694Z,189.17
2019-04-14T14:12:03.519Z,185.13
2019-04-14T14:16:30.727Z,178.57
2019-04-14T14:20:46.532Z,183.33
2019-04-14T14:25:01.188Z,185.40
2019-04-14T14:29:12.535Z,200.27
2019-04-14T14:33:22.870Z,188.30
2019-04-14T14:37:33.387Z,190.33
2019-04-14T14:41:43.771Z,188.60
2019-04-14T14:45:58.743Z,188.20
2019-04-14T14:50:26.952Z,195.47
2019-04-14T14:54:37.358Z,190.70
2019-04-14T14:58:47.582Z,190.77
2019-04-14T15:02:57.936Z,188.73
2019-04-14T15:07:08.442Z,191.23
2019-04-14T15:11:18.986Z,194.27
2019-04-14T15:15:29.365Z,186.30
2019-04-14T15:19:44.136Z,189.03
2019-04-14T15:23:55.279Z,194.17
2019-04-14T15:28:05.655Z,192.43
2019-04-14T15:32:15.998Z,191.07
2019-04-14T15:36:26.299Z,195.53
2019-04-14T15:40:36.711Z,192.83
2019-04-14T15:44:47.067Z,192.03
2019-04-14T15:48:57.392Z,189.47
2019-04-14T15:53:08.032Z,190.80
2019-04-14T15:57:38.367Z,184.27
2019-04-14T16:01:55.932Z,191.87
2019-04-14T16:06:17.345Z,195.20
2019-04-14T16:10:31.960Z,197.27
2019-04-14T16:14:43.946Z,191.27
2019-04-14T16:18:58.718Z,194.47
2019-04-14T16:23:09.078Z,188.17
2019-04-14T16:27:21.346Z,190.23
2019-04-14T16:31:49.141Z,191.03
2019-04-14T16:35:59.792Z,192.93
2019-04-14T16:40:10.344Z,195.33
2019-04-14T16:44:20.708Z,192.27
2019-04-14T16:48:31.084Z,189.90
2019-04-14T16:52:45.863Z,192.33
2019-04-14T16:57:17.099Z,192.90
2019-04-14T17:01:29.230Z,187.63
2019-04-14T17:05:39.446Z,192.87
2019-04-14T17:09:49.714Z,196.07
2019-04-14T17:14:07.469Z,194.80
2019-04-14T17:18:22.436Z,191.30
2019-04-14T17:22:43.147Z,191.07
2019-04-14T17:26:57.951Z,195.90
2019-04-14T17:31:09.943Z,196.30
2019-04-14T17:35:39.628Z,193.90
2019-04-14T17:39:54.259Z,194.37
2019-04-14T17:44:06.490Z,193.17
2019-04-14T17:48:34.606Z,195.73
2019-04-14T17:52:52.364Z,192.23
2019-04-14T17:57:16.017Z,191.40
2019-04-14T18:01:31.022Z,193.83
2019-04-14T18:05:42.870Z,197.37
2019-04-14T18:09:54.835Z,200.97
2019-04-14T18:14:10.174Z,194.23
2019-04-14T18:18:22.173Z,193.83
2019-04-14T18:22:33.073Z,196.73
2019-04-14T18:26:43.969Z,188.53
2019-04-14T18:30:56.342Z,188.63
2019-04-14T18:35:08.268Z,189.30
2019-04-14T18:39:20.237Z,187.43
2019-04-14T18:43:35.180Z,187.10
2019-04-14T18:47:49.308Z,186.10
2019-04-14T18:52:05.117Z,190.93
2019-04-14T18:56:34.193Z,185.47
2019-04-14T19:00:47.426Z,180.77
2019-04-14T19:04:58.478Z,185.67
2019-04-14T19:09:08.874Z,182.63
2019-04-14T19:13:27.640Z,183.47
2019-04-14T19:17:56.339Z,181.53
2019-04-14T19:22:06.754Z,182.10
2019-04-14T19:26:17.038Z,182.10
2019-04-14T19:30:27.659Z,188.47
2019-04-14T19:34:37.996Z,184.10
2019-04-14T19:38:48.342Z,182.60
2019-04-14T19:42:58.849Z,179.37
2019-04-14T19:47:09.265Z,180.23
2019-04-14T19:51:19.463Z,181.27
2019-04-14T19:55:29.873Z,184.43
2019-04-14T19:59:40.280Z,182.60
2019-04-14T20:03:50.500Z,183.57
2019-04-14T20:08:02.217Z,179.03
2019-04-14T20:12:13.210Z,181.70
2019-04-14T20:16:31.301Z,177.97
2019-04-14T20:20:43.343Z,178.77
2019-04-14T20:24:55.404Z,178.20
2019-04-14T20:29:09.918Z,181.03
2019-04-14T20:33:20.251Z,181.20
2019-04-14T20:37:30.687Z,180.40
2019-04-14T20:41:41.461Z,181.20
2019-04-14T20:45:51.862Z,176.60
2019-04-14T20:50:02.420Z,176.83
2019-04-14T20:54:13.429Z,175.53
2019-04-14T20:58:23.670Z,176.13
2019-04-14T21:02:35.614Z,175.17
2019-04-14T21:06:47.573Z,180.30
2019-04-14T21:11:15.792Z,177.70
2019-04-14T21:15:30.135Z,172.77
2019-04-14T21:19:50.952Z,178.30
2019-04-14T21:24:10.310Z,175.57
2019-04-14T21:28:37.861Z,181.27
2019-04-14T21:32:50.122Z,177.23
2019-04-14T21:37:02.058Z,174.50
2019-04-14T21:41:24.814Z,174.07
2019-04-14T21:45:35.082Z,178.12
2019-04-14T21:49:47.906Z,176.90
2019-04-14T21:53:58.333Z,177.53
2019-04-14T21:58:10.401Z,177.97
2019-04-14T22:02:39.355Z,178.70
2019-04-14T22:06:54.010Z,173.63
2019-04-14T22:11:09.039Z,180.23
2019-04-14T22:15:19.233Z,176.07
2019-04-14T22:19:30.327Z,173.47
2019-04-14T22:23:40.842Z,175.30
2019-04-14T22:27:51.169Z,183.10
2019-04-14T22:32:18.949Z,179.27
2019-04-14T22:36:29.238Z,174.10
2019-04-14T22:40:39.417Z,178.00
2019-04-14T22:44:49.657Z,178.20
2019-04-14T22:49:01.650Z,178.73
2019-04-14T22:53:11.923Z,178.80
2019-04-14T22:57:22.222Z,177.93
2019-04-14T23:01:34.268Z,179.27
2019-04-14T23:05:51.978Z,173.47
2019-04-14T23:10:04.262Z,178.97
2019-04-14T23:14:16.420Z,175.83
2019-04-14T23:18:28.542Z,175.70
2019-04-14T23:22:49.080Z,174.83
2019-04-14T23:26:59.494Z,183.03
2019-04-14T23:31:09.806Z,177.20
2019-04-14T23:35:20.111Z,187.50
2019-04-14T23:39:30.949Z,173.60
2019-04-14T23:43:41.238Z,175.57
2019-04-14T23:47:51.738Z,179.23
2019-04-14T23:52:02.416Z,176.20
2019-04-14T23:56:12.691Z,174.43
